createdAt,value
2018-11-20T00:03:59.877Z,2.40
2018-11-20T00:06:27.199Z,2.40
2018-11-20T00:11:24.332Z,2.40
2018-11-20T00:14:15.633Z,2.50
2018-11-20T00:19:17.577Z,2.50
2018-11-20T00:21:47.730Z,2.40
2018-11-20T00:24:23.863Z,2.40
2018-11-20T00:26:51.905Z,2.40
2018-11-20T00:36:50.168Z,2.40
2018-11-20T00:39:20.340Z,2.40
2018-11-20T00:44:17.233Z,2.40
2018-11-20T00:49:15.977Z,2.40
2018-11-20T00:54:14.837Z,2.40
2018-11-20T00:59:18.515Z,2.40
2018-11-20T01:04:19.308Z,2.30
2018-11-20T01:06:49.364Z,2.30
2018-11-20T01:09:24.992Z,2.30
2018-11-20T01:14:16.974Z,2.30
2018-11-20T01:19:18.263Z,2.30
2018-11-20T01:24:19.836Z,2.30
2018-11-20T01:29:18.929Z,2.30
2018-11-20T01:39:27.683Z,2.30
2018-11-20T01:44:28.461Z,2.20
2018-11-20T01:52:39.332Z,2.20
2018-11-20T01:57:37.529Z,2.10
2018-11-20T02:02:37.082Z,2.10
2018-11-20T02:07:36.587Z,2.00
2018-11-20T02:12:36.376Z,2.10
2018-11-20T02:20:02.893Z,1.90
2018-11-20T02:27:33.001Z,1.90
2018-11-20T02:32:47.104Z,1.90
2018-11-20T02:37:47.151Z,1.80
2018-11-20T02:40:14.512Z,1.80
2018-11-20T02:45:13.027Z,1.90
2018-11-20T02:50:09.668Z,1.90
2018-11-20T02:52:37.885Z,1.90
2018-11-20T02:57:35.357Z,1.90
2018-11-20T03:02:32.118Z,1.90
2018-11-20T03:18:05.774Z,2.00
2018-11-20T03:23:14.893Z,2.00
2018-11-20T03:51:47.173Z,2.00
2018-11-20T03:54:17.038Z,2.00
2018-11-20T03:59:14.743Z,1.90
2018-11-20T04:09:12.185Z,1.90
2018-11-20T04:14:10.375Z,1.90
2018-11-20T04:19:10.145Z,1.90
2018-11-20T04:25:34.955Z,2.00
2018-11-20T04:30:40.512Z,1.90
2018-11-20T04:36:24.058Z,2.00
2018-11-20T04:38:50.964Z,2.00
2018-11-20T04:46:18.204Z,2.00
2018-11-20T04:51:37.955Z,2.00
2018-11-20T04:56:35.225Z,2.00
2018-11-20T05:01:34.601Z,2.00
2018-11-20T05:04:04.666Z,2.00
2018-11-20T05:09:03.451Z,2.00
2018-11-20T05:19:27.515Z,2.10
2018-11-20T05:24:25.883Z,2.00
2018-11-20T05:34:54.988Z,2.00
2018-11-20T05:37:24.242Z,2.10
2018-11-20T05:47:54.361Z,2.10
2018-11-20T05:50:24.251Z,2.00
2018-11-20T05:56:14.916Z,2.10
2018-11-20T05:58:42.437Z,2.10
2018-11-20T06:01:25.479Z,2.10
2018-11-20T06:06:33.731Z,2.10
2018-11-20T06:09:03.565Z,2.00
2018-11-20T06:14:01.556Z,2.10
2018-11-20T06:19:05.803Z,2.10
2018-11-20T06:24:05.035Z,2.20
2018-11-20T06:29:15.496Z,2.10
2018-11-20T06:36:41.156Z,2.20
2018-11-20T06:41:38.016Z,2.10
2018-11-20T06:49:11.132Z,2.10
2018-11-20T06:56:42.543Z,2.20
2018-11-20T06:59:12.548Z,2.30
2018-11-20T07:04:13.249Z,2.20
2018-11-20T07:09:11.002Z,2.30
2018-11-20T07:16:46.791Z,2.30
2018-11-20T07:19:16.843Z,2.30
2018-11-20T07:24:16.731Z,2.30
2018-11-20T07:29:14.504Z,2.40
2018-11-20T07:34:19.328Z,2.40
2018-11-20T07:41:47.705Z,2.40
2018-11-20T07:46:44.929Z,2.50
2018-11-20T07:51:41.463Z,2.50
2018-11-20T07:56:39.815Z,2.60
2018-11-20T08:01:38.401Z,2.60
2018-11-20T08:06:36.075Z,2.70
2018-11-20T08:11:35.282Z,2.70
2018-11-20T08:19:09.075Z,2.70
2018-11-20T08:21:37.434Z,2.70
2018-11-20T08:29:12.860Z,2.80
2018-11-20T08:31:42.889Z,2.90
2018-11-20T08:36:44.118Z,2.90
2018-11-20T08:41:43.698Z,3.00
2018-11-20T08:44:13.525Z,3.00
2018-11-20T08:46:43.519Z,3.00
2018-11-20T08:51:42.389Z,3.00
2018-11-20T08:56:40.066Z,3.10
2018-11-20T09:01:40.911Z,3.10
2018-11-20T09:06:40.630Z,3.10
2018-11-20T09:11:57.812Z,3.20
2018-11-20T09:16:56.963Z,3.20
2018-11-20T09:22:02.035Z,3.30
2018-11-20T09:24:30.555Z,3.20
2018-11-20T09:29:29.923Z,3.20
2018-11-20T09:34:31.795Z,3.20
2018-11-20T09:39:31.218Z,3.40
2018-11-20T09:47:03.903Z,3.50
2018-11-20T09:49:33.535Z,3.50
2018-11-20T09:57:02.512Z,3.40
2018-11-20T10:02:02.151Z,3.50
2018-11-20T10:04:32.472Z,3.50
2018-11-20T10:09:31.606Z,3.60
2018-11-20T10:14:31.262Z,3.70
2018-11-20T10:19:30.343Z,3.80
2018-11-20T10:24:30.164Z,3.90
2018-11-20T10:29:29.632Z,3.90
2018-11-20T10:34:30.816Z,4.00
2018-11-20T10:39:28.569Z,4.00
2018-11-20T10:44:27.881Z,4.20
2018-11-20T10:49:26.860Z,4.30
2018-11-20T10:56:56.651Z,4.60
2018-11-20T10:59:26.498Z,4.40
2018-11-20T11:04:23.971Z,4.30
2018-11-20T11:09:53.336Z,4.50
2018-11-20T11:14:52.040Z,4.50
2018-11-20T11:19:52.116Z,4.50
2018-11-20T11:27:22.599Z,4.50
2018-11-20T11:29:52.333Z,4.40
2018-11-20T11:40:30.773Z,4.40
2018-11-20T11:43:38.113Z,4.40
2018-11-20T11:46:45.423Z,4.50
2018-11-20T11:49:52.826Z,4.50
2018-11-20T11:52:41.450Z,4.50
2018-11-20T11:55:48.638Z,4.60
2018-11-20T11:58:36.934Z,4.60
2018-11-20T12:04:50.713Z,4.50
2018-11-20T12:07:57.934Z,4.20
2018-11-20T12:11:05.183Z,4.30
2018-11-20T12:14:12.423Z,4.30
2018-11-20T12:17:00.659Z,4.20
2018-11-20T12:19:48.899Z,4.20
2018-11-20T12:22:56.133Z,4.20
2018-11-20T12:26:03.394Z,4.20
2018-11-20T12:29:10.651Z,4.20
2018-11-20T12:32:20.603Z,4.20
2018-11-20T12:35:33.175Z,4.20
2018-11-20T12:38:35.105Z,4.20
2018-11-20T12:41:23.346Z,4.10
2018-11-20T12:44:05.950Z,4.00
2018-11-20T12:47:15.141Z,4.00
2018-11-20T12:49:51.948Z,4.00
2018-11-20T12:52:38.261Z,4.00
2018-11-20T12:55:07.864Z,4.00
2018-11-20T13:00:09.387Z,3.90
2018-11-20T13:05:09.467Z,3.90
2018-11-20T13:10:07.040Z,4.00
2018-11-20T13:17:35.885Z,3.80
2018-11-20T13:22:31.159Z,3.80
2018-11-20T13:27:29.255Z,3.90
2018-11-20T13:32:32.570Z,3.90
2018-11-20T13:37:51.842Z,4.00
2018-11-20T13:42:51.845Z,4.00
2018-11-20T13:47:47.967Z,3.90
2018-11-20T13:52:44.560Z,3.90
2018-11-20T13:58:20.741Z,3.90
2018-11-20T14:03:16.952Z,3.80
2018-11-20T14:08:13.464Z,3.70
2018-11-20T14:13:12.745Z,3.80
2018-11-20T14:18:10.613Z,3.70
2018-11-20T14:23:09.872Z,3.70
2018-11-20T14:28:08.767Z,3.70
2018-11-20T14:33:05.811Z,3.70
2018-11-20T14:38:05.779Z,3.60
2018-11-20T14:43:01.835Z,3.60
2018-11-20T14:48:37.979Z,3.60
2018-11-20T14:53:35.530Z,3.50
2018-11-20T14:58:34.993Z,3.40
2018-11-20T15:03:34.567Z,3.30
2018-11-20T15:06:15.204Z,3.30
2018-11-20T15:08:45.459Z,3.30
2018-11-20T15:16:15.951Z,3.30
2018-11-20T15:18:46.081Z,3.30
2018-11-20T15:21:35.680Z,3.30
2018-11-20T15:24:05.412Z,3.30
2018-11-20T15:29:04.431Z,3.30
2018-11-20T15:34:03.423Z,3.30
2018-11-20T15:39:03.971Z,3.30
2018-11-20T15:44:03.006Z,3.30
2018-11-20T15:49:00.253Z,3.30
2018-11-20T15:57:07.306Z,3.20
2018-11-20T15:59:37.274Z,3.10
2018-11-20T16:04:36.069Z,3.10
2018-11-20T16:09:32.892Z,3.10
2018-11-20T16:17:40.684Z,3.20
2018-11-20T16:20:08.382Z,3.10
2018-11-20T16:25:11.206Z,3.10
2018-11-20T16:30:10.871Z,3.10
2018-11-20T16:35:10.288Z,3.00
2018-11-20T16:40:08.112Z,3.00
2018-11-20T16:45:07.115Z,3.10
2018-11-20T16:50:05.086Z,3.10
2018-11-20T16:55:05.878Z,3.00
2018-11-20T17:00:00.231Z,3.00
2018-11-20T17:02:30.621Z,3.00
2018-11-20T17:07:27.777Z,3.00
2018-11-20T17:12:28.534Z,3.00
2018-11-20T17:17:25.329Z,3.00
2018-11-20T17:24:58.832Z,3.10
2018-11-20T17:30:01.072Z,3.10
2018-11-20T17:32:30.776Z,3.10
2018-11-20T17:37:30.332Z,3.10
2018-11-20T17:42:28.302Z,3.20
2018-11-20T17:47:25.557Z,3.20
2018-11-20T17:52:24.150Z,3.20
2018-11-20T17:57:21.892Z,3.20
2018-11-20T18:02:18.774Z,3.10
2018-11-20T18:07:17.855Z,3.10
2018-11-20T18:12:17.852Z,3.10
2018-11-20T18:17:20.174Z,3.10
2018-11-20T18:22:17.425Z,3.10
2018-11-20T18:27:19.005Z,3.10
2018-11-20T18:32:15.205Z,3.10
2018-11-20T18:37:16.091Z,3.00
2018-11-20T18:42:16.089Z,2.90
2018-11-20T18:47:13.085Z,3.00
2018-11-20T18:54:41.185Z,3.10
2018-11-20T18:59:37.993Z,3.10
2018-11-20T19:04:37.773Z,3.10
2018-11-20T19:09:34.903Z,3.10
2018-11-20T19:14:31.787Z,3.10
2018-11-20T19:19:29.848Z,3.00
2018-11-20T19:24:35.733Z,2.90
2018-11-20T19:29:33.580Z,2.90
2018-11-20T19:34:31.554Z,2.90
2018-11-20T19:39:37.255Z,3.00
2018-11-20T19:44:36.537Z,3.00
2018-11-20T19:52:12.085Z,3.00
2018-11-20T19:57:18.024Z,3.10
2018-11-20T20:00:18.460Z,3.00
2018-11-20T20:05:15.464Z,3.10
2018-11-20T20:10:18.613Z,3.10
2018-11-20T20:15:13.191Z,3.10
2018-11-20T20:23:08.048Z,3.10
2018-11-20T20:25:37.761Z,3.10
2018-11-20T20:33:09.992Z,2.90
2018-11-20T20:35:37.010Z,3.10
2018-11-20T20:40:52.687Z,3.20
2018-11-20T20:45:50.953Z,3.20
2018-11-20T20:58:35.723Z,3.20
2018-11-20T21:01:02.563Z,3.20
2018-11-20T21:03:51.910Z,3.30
2018-11-20T21:11:26.929Z,3.30
2018-11-20T21:16:25.553Z,3.30
2018-11-20T21:18:55.858Z,3.20
2018-11-20T21:23:55.049Z,3.10
2018-11-20T21:28:54.405Z,3.00
2018-11-20T21:31:24.292Z,2.90
2018-11-20T21:36:23.608Z,2.80
2018-11-20T21:43:56.001Z,2.80
2018-11-20T21:46:26.071Z,2.90
2018-11-20T21:48:55.919Z,2.90
2018-11-20T21:53:53.765Z,2.90
2018-11-20T21:58:50.674Z,2.90
2018-11-20T22:03:50.098Z,2.90
2018-11-20T22:06:19.840Z,2.90
2018-11-20T22:11:19.327Z,2.80
2018-11-20T22:17:20.899Z,2.70
2018-11-20T22:20:07.026Z,2.70
2018-11-20T22:23:09.644Z,2.50
2018-11-20T22:25:54.719Z,2.50
2018-11-20T22:28:40.702Z,2.50
2018-11-20T22:31:34.357Z,2.50
2018-11-20T22:34:22.101Z,2.40
2018-11-20T22:37:12.554Z,2.30
2018-11-20T22:39:58.335Z,2.20
2018-11-20T22:42:45.839Z,2.10
2018-11-20T22:45:26.321Z,2.00
2018-11-20T22:48:19.606Z,1.90
2018-11-20T22:51:05.694Z,1.90
2018-11-20T22:53:51.800Z,1.80
2018-11-20T22:56:45.302Z,1.80
2018-11-20T22:59:19.943Z,1.60
2018-11-20T23:02:06.226Z,1.30
2018-11-20T23:04:54.317Z,1.10
2018-11-20T23:07:41.368Z,0.90
2018-11-20T23:10:10.020Z,0.60
2018-11-20T23:12:38.353Z,0.50
2018-11-20T23:15:09.974Z,0.40
2018-11-20T23:17:38.618Z,0.40
2018-11-20T23:20:07.929Z,0.30
2018-11-20T23:22:36.722Z,0.20
2018-11-20T23:25:06.083Z,0.20
2018-11-20T23:27:34.795Z,0.20
2018-11-20T23:30:03.506Z,0.20
2018-11-20T23:32:31.732Z,0.10
2018-11-20T23:34:59.955Z,0.00
2018-11-20T23:37:28.173Z,0.00
2018-11-20T23:39:56.482Z,0.00
2018-11-20T23:42:25.130Z,-0.10
2018-11-20T23:44:53.390Z,-0.10
2018-11-20T23:47:21.610Z,0.00
2018-11-20T23:49:49.940Z,0.00
2018-11-20T23:52:18.556Z,0.00
2018-11-20T23:54:47.131Z,0.00
2018-11-20T23:57:15.387Z,0.00
2018-11-20T23:59:43.870Z,0.20
